Rapid City, South Dakota
Current Conditions -  °F | °C
As of 8:00 PM on Wednesday 26 Nov 2014 (Local Time) from KRCA Reporting Station
Overcast Overcast  
Wind Chill: 28°   Ceiling: 1500
Heat Index: 28°   Visibility: 10mi
Dew Point: 27°   Wind: 3mph
Humidity: 93%   Direction: 130°SE
Pressure: 30.27"   Gusts: NA
Location:  44.08°N, 103.23°W
Report Text: KRCA 270300Z AUTO 13003KT 10SM OVC015 M02/M03 A3027 RMK AO2 UPE0300 $
Loading
Personal Weather Stations






























Interactive Weather Map New forecast layout! Learn more

10-Day Weather Forecast

Advertisements
Track Severe Weather on mobile